Terminal Aerodrome Forecast
Issued by NWS Houston/Galveston, TX

Home | Current Version | Previous Version | Text Only | Print | Product List | Glossary On
Versions: 1 2 3 4 5 6 7 8 9 10 11 12 13 14 15 16 17 18 19 20
000
FTUS44 KHGX 241725
TAFGLS
TAF
KGLS 241725Z 2418/2518 14018KT P6SM SKC
     FM242100 15018KT P6SM VCSH SCT025
     FM250000 18018G26KT P6SM VCTS SCT040CB
     FM250500 19015KT P6SM VCSH SCT010 BKN035
     FM251000 22013KT P6SM BKN250
     FM251500 26012KT P6SM SKC=

USA.gov is the U.S. government's official web portal to all federal, state and local government web resources and services.